createdAt,value
2018-08-24T00:00:44.691Z,21.85
2018-08-24T00:01:44.756Z,21.76
2018-08-24T00:02:44.813Z,21.85
2018-08-24T00:03:44.884Z,21.91
2018-08-24T00:04:44.944Z,21.82
2018-08-24T00:05:45.016Z,21.66
2018-08-24T00:06:45.084Z,21.62
2018-08-24T00:07:45.147Z,21.37
2018-08-24T00:08:45.216Z,21.35
2018-08-24T00:09:45.280Z,21.22
2018-08-24T00:10:45.355Z,21.22
2018-08-24T00:11:45.418Z,21.06
2018-08-24T00:12:45.472Z,20.93
2018-08-24T00:13:45.544Z,20.93
2018-08-24T00:14:45.608Z,20.85
2018-08-24T00:15:45.676Z,20.84
2018-08-24T00:16:45.744Z,20.82
2018-08-24T00:17:45.808Z,20.80
2018-08-24T00:18:45.872Z,20.69
2018-08-24T00:19:45.940Z,20.72
2018-08-24T00:20:46.012Z,20.59
2018-08-24T00:21:46.076Z,20.52
2018-08-24T00:22:46.132Z,20.41
2018-08-24T00:23:46.197Z,20.36
2018-08-24T00:24:46.264Z,20.32
2018-08-24T00:25:46.341Z,20.26
2018-08-24T00:26:46.400Z,20.16
2018-08-24T00:27:46.460Z,20.02
2018-08-24T00:28:46.532Z,19.99
2018-08-24T00:29:46.598Z,19.91
2018-08-24T00:30:46.669Z,19.99
2018-08-24T00:31:46.815Z,19.92
2018-08-24T00:32:46.792Z,19.82
2018-08-24T00:33:46.861Z,19.82
2018-08-24T00:34:46.921Z,19.79
2018-08-24T00:35:46.997Z,19.73
2018-08-24T00:36:47.061Z,19.81
2018-08-24T00:37:47.120Z,19.73
2018-08-24T00:38:47.189Z,19.70
2018-08-24T00:39:47.249Z,19.66
2018-08-24T00:40:47.429Z,19.52
2018-08-24T00:41:47.393Z,19.62
2018-08-24T00:42:47.533Z,19.49
2018-08-24T00:43:47.518Z,19.52
2018-08-24T00:44:47.578Z,19.45
2018-08-24T00:45:47.653Z,19.36
2018-08-24T00:46:47.717Z,19.45
2018-08-24T00:47:47.778Z,19.44
2018-08-24T00:48:47.841Z,19.41
2018-08-24T00:49:47.914Z,19.44
2018-08-24T00:50:47.984Z,19.39
2018-08-24T00:51:48.054Z,19.44
2018-08-24T00:52:48.110Z,19.41
2018-08-24T00:53:48.219Z,19.30
2018-08-24T00:54:48.238Z,19.44
2018-08-24T00:55:48.307Z,19.49
2018-08-24T00:56:48.498Z,19.37
2018-08-24T00:57:48.450Z,19.47
2018-08-24T00:58:48.502Z,19.44
2018-08-24T00:59:48.566Z,19.40
2018-08-24T01:00:48.638Z,19.48
2018-08-24T01:01:48.706Z,19.47
2018-08-24T01:02:48.770Z,19.44
2018-08-24T01:03:48.836Z,19.45
2018-08-24T01:04:48.896Z,19.48
2018-08-24T01:05:48.968Z,19.49
2018-08-24T01:06:49.034Z,19.54
2018-08-24T01:07:49.111Z,19.56
2018-08-24T01:08:49.159Z,19.63
2018-08-24T01:09:49.222Z,19.66
2018-08-24T01:10:49.290Z,19.64
2018-08-24T01:11:49.379Z,19.59
2018-08-24T01:12:49.427Z,19.58
2018-08-24T01:13:49.487Z,19.63
2018-08-24T01:14:49.571Z,19.64
2018-08-24T01:15:49.618Z,19.59
2018-08-24T01:16:49.690Z,19.52
2018-08-24T01:17:49.759Z,19.52
2018-08-24T01:18:49.815Z,19.49
2018-08-24T01:19:49.879Z,19.51
2018-08-24T01:20:49.942Z,19.45
2018-08-24T01:21:50.019Z,19.45
2018-08-24T01:22:50.088Z,19.41
2018-08-24T01:23:50.143Z,19.41
2018-08-24T01:24:50.209Z,19.48
2018-08-24T01:25:50.280Z,19.44
2018-08-24T01:26:50.347Z,19.41
2018-08-24T01:27:50.411Z,19.44
2018-08-24T01:28:50.471Z,19.41
2018-08-24T01:29:50.539Z,19.34
2018-08-24T01:30:50.599Z,19.39
2018-08-24T01:31:50.675Z,19.34
2018-08-24T01:32:50.739Z,19.45
2018-08-24T01:33:50.799Z,19.41
2018-08-24T01:34:50.863Z,19.33
2018-08-24T01:35:50.928Z,19.37
2018-08-24T01:36:51.004Z,19.47
2018-08-24T01:37:51.067Z,19.44
2018-08-24T01:38:51.124Z,19.37
2018-08-24T01:39:51.192Z,19.49
2018-08-24T01:40:51.256Z,19.39
2018-08-24T01:41:51.325Z,19.40
2018-08-24T01:42:51.488Z,19.34
2018-08-24T01:43:51.452Z,19.39
2018-08-24T01:44:51.520Z,19.41
2018-08-24T01:45:51.584Z,19.33
2018-08-24T01:46:51.648Z,19.39
2018-08-24T01:47:51.720Z,19.31
2018-08-24T01:48:51.788Z,19.34
2018-08-24T01:49:51.848Z,19.33
2018-08-24T01:50:51.912Z,19.36
2018-08-24T01:51:51.975Z,19.30
2018-08-24T01:52:52.048Z,19.37
2018-08-24T01:53:52.116Z,19.44
2018-08-24T01:54:52.171Z,19.39
2018-08-24T01:55:52.240Z,19.33
2018-08-24T01:56:52.304Z,19.39
2018-08-24T01:57:52.391Z,19.39
2018-08-24T01:58:52.493Z,19.37
2018-08-24T01:59:52.503Z,19.37
2018-08-24T02:00:52.568Z,19.37
2018-08-24T02:01:52.632Z,19.41
2018-08-24T02:02:52.704Z,19.34
2018-08-24T02:03:52.768Z,19.34
2018-08-24T02:04:52.828Z,19.33
2018-08-24T02:05:52.892Z,19.16
2018-08-24T02:06:52.965Z,19.27
2018-08-24T02:07:53.036Z,19.16
2018-08-24T02:08:53.096Z,19.19
2018-08-24T02:09:53.157Z,19.22
2018-08-24T02:10:53.220Z,19.16
2018-08-24T02:11:53.293Z,19.15
2018-08-24T02:12:53.488Z,19.15
2018-08-24T02:13:53.416Z,19.21
2018-08-24T02:14:53.484Z,19.08
2018-08-24T02:15:53.552Z,19.21
2018-08-24T02:16:53.612Z,19.09
2018-08-24T02:17:53.685Z,19.08
2018-08-24T02:18:53.753Z,18.98
2018-08-24T02:19:53.815Z,19.14
2018-08-24T02:20:53.877Z,19.11
2018-08-24T02:21:53.941Z,19.11
2018-08-24T02:22:54.013Z,19.09
2018-08-24T02:23:54.080Z,19.11
2018-08-24T02:24:54.137Z,19.08
2018-08-24T02:25:54.209Z,18.99
2018-08-24T02:26:54.271Z,18.99
2018-08-24T02:27:54.341Z,18.93
2018-08-24T02:28:54.405Z,18.96
2018-08-24T02:29:54.465Z,18.99
2018-08-24T02:30:54.529Z,18.89
2018-08-24T02:31:54.598Z,18.98
2018-08-24T02:32:54.669Z,18.99
2018-08-24T02:33:54.733Z,19.00
2018-08-24T02:34:54.793Z,18.95
2018-08-24T02:35:54.858Z,19.02
2018-08-24T02:36:54.923Z,19.02
2018-08-24T02:37:54.993Z,19.07
2018-08-24T02:38:55.065Z,18.96
2018-08-24T02:39:55.129Z,19.02
2018-08-24T02:40:55.186Z,19.02
2018-08-24T02:41:55.250Z,19.00
2018-08-24T02:42:55.314Z,18.98
2018-08-24T02:43:55.570Z,18.96
2018-08-24T02:44:55.490Z,18.88
2018-08-24T02:45:55.510Z,18.86
2018-08-24T02:46:55.580Z,18.78
2018-08-24T02:47:55.642Z,18.71
2018-08-24T02:48:55.717Z,18.62
2018-08-24T02:49:55.778Z,18.62
2018-08-24T02:50:55.838Z,18.70
2018-08-24T02:51:55.902Z,18.55
2018-08-24T02:52:55.966Z,18.60
2018-08-24T02:53:56.038Z,18.41
2018-08-24T02:54:56.109Z,18.52
2018-08-24T02:55:56.166Z,18.53
2018-08-24T02:56:56.230Z,18.35
2018-08-24T02:57:56.300Z,18.34
2018-08-24T02:58:56.366Z,18.33
2018-08-24T02:59:56.430Z,18.18
2018-08-24T03:00:56.490Z,18.25
2018-08-24T03:01:56.565Z,18.20
2018-08-24T03:02:56.622Z,18.18
2018-08-24T03:03:56.690Z,18.07
2018-08-24T03:04:56.758Z,18.03
2018-08-24T03:05:56.815Z,18.01
2018-08-24T03:06:56.882Z,17.98
2018-08-24T03:07:56.947Z,17.85
2018-08-24T03:08:57.025Z,17.92
2018-08-24T03:09:57.083Z,17.89
2018-08-24T03:10:57.143Z,17.82
2018-08-24T03:11:57.207Z,17.80
2018-08-24T03:12:57.270Z,17.79
2018-08-24T03:13:57.346Z,17.72
2018-08-24T03:14:57.407Z,17.63
2018-08-24T03:15:57.506Z,17.65
2018-08-24T03:16:57.531Z,17.60
2018-08-24T03:17:57.599Z,17.72
2018-08-24T03:18:57.667Z,17.71
2018-08-24T03:19:57.731Z,17.52
2018-08-24T03:20:57.815Z,17.59
2018-08-24T03:21:57.855Z,17.54
2018-08-24T03:22:57.919Z,17.52
2018-08-24T03:23:57.991Z,17.57
2018-08-24T03:24:58.055Z,17.56
2018-08-24T03:25:58.115Z,17.52
2018-08-24T03:26:58.180Z,17.52
2018-08-24T03:27:58.247Z,17.51
2018-08-24T03:28:58.467Z,17.49
2018-08-24T03:29:58.376Z,17.52
2018-08-24T03:30:58.440Z,17.51
2018-08-24T03:31:58.504Z,17.49
2018-08-24T03:32:58.568Z,17.46
2018-08-24T03:33:58.640Z,17.42
2018-08-24T03:34:58.708Z,17.39
2018-08-24T03:35:58.764Z,17.38
2018-08-24T03:36:58.827Z,17.24
2018-08-24T03:37:58.892Z,17.27
2018-08-24T03:38:58.970Z,17.34
2018-08-24T03:39:59.035Z,17.30
2018-08-24T03:40:59.088Z,17.27
2018-08-24T03:41:59.148Z,17.22
2018-08-24T03:42:59.222Z,17.16
2018-08-24T03:43:59.308Z,17.20
2018-08-24T03:44:59.356Z,17.15
2018-08-24T03:45:59.490Z,17.20
2018-08-24T03:46:59.482Z,17.12
2018-08-24T03:47:59.540Z,17.19
2018-08-24T03:48:59.612Z,17.12
2018-08-24T03:49:59.676Z,17.01
2018-08-24T03:50:59.737Z,17.06
2018-08-24T03:51:59.802Z,17.12
2018-08-24T03:52:59.976Z,17.06
2018-08-24T03:53:59.941Z,17.14
2018-08-24T03:55:00.000Z,17.05
2018-08-24T03:56:00.061Z,17.12
2018-08-24T03:57:00.125Z,17.08
2018-08-24T03:58:00.189Z,17.05
2018-08-24T03:59:00.258Z,17.02
2018-08-24T04:00:00.753Z,17.05
2018-08-24T04:01:00.381Z,17.08
2018-08-24T04:02:00.445Z,16.96
2018-08-24T04:03:00.517Z,16.97
2018-08-24T04:04:00.577Z,16.99
2018-08-24T04:05:00.645Z,16.99
2018-08-24T04:06:00.945Z,16.94
2018-08-24T04:07:00.771Z,16.96
2018-08-24T04:08:00.833Z,17.01
2018-08-24T04:09:00.897Z,16.94
2018-08-24T04:10:00.971Z,17.11
2018-08-24T04:11:01.033Z,17.05
2018-08-24T04:12:01.108Z,17.08
2018-08-24T04:13:01.157Z,17.11
2018-08-24T04:14:01.223Z,17.06
2018-08-24T04:15:01.285Z,17.09
2018-08-24T04:16:01.449Z,17.22
2018-08-24T04:17:01.417Z,17.08
2018-08-24T04:18:01.481Z,17.14
2018-08-24T04:19:01.546Z,17.16
2018-08-24T04:20:01.611Z,17.15
2018-08-24T04:21:01.681Z,17.19
2018-08-24T04:22:01.746Z,17.15
2018-08-24T04:23:01.806Z,17.20
2018-08-24T04:24:01.865Z,17.19
2018-08-24T04:25:01.957Z,17.22
2018-08-24T04:26:02.049Z,17.22
2018-08-24T04:27:02.069Z,17.36
2018-08-24T04:28:02.125Z,17.36
2018-08-24T04:29:02.191Z,17.22
2018-08-24T04:30:02.253Z,17.36
2018-08-24T04:31:02.661Z,17.29
2018-08-24T04:32:02.402Z,17.33
2018-08-24T04:33:02.449Z,17.31
2018-08-24T04:34:02.514Z,17.23
2018-08-24T04:35:02.626Z,17.41
2018-08-24T04:36:02.645Z,17.36
2018-08-24T04:37:02.873Z,17.42
2018-08-24T04:38:02.769Z,17.41
2018-08-24T04:39:02.840Z,17.38
2018-08-24T04:40:02.902Z,17.42
2018-08-24T04:41:02.966Z,17.44
2018-08-24T04:42:03.038Z,17.41
2018-08-24T04:43:03.102Z,17.38
2018-08-24T04:44:03.160Z,17.44
2018-08-24T04:45:03.222Z,17.41
2018-08-24T04:46:03.290Z,17.31
2018-08-24T04:47:03.362Z,17.38
2018-08-24T04:48:03.421Z,17.45
2018-08-24T04:49:03.482Z,17.41
2018-08-24T04:50:03.551Z,17.42
2018-08-24T04:51:03.617Z,17.39
2018-08-24T04:52:03.681Z,17.48
2018-08-24T04:53:03.746Z,17.48
2018-08-24T04:54:03.818Z,17.46
2018-08-24T04:55:03.902Z,17.56
2018-08-24T04:56:03.934Z,17.54
2018-08-24T04:57:04.006Z,17.48
2018-08-24T04:58:04.074Z,17.54
2018-08-24T04:59:04.132Z,17.57
2018-08-24T05:00:04.195Z,17.56
2018-08-24T05:01:04.258Z,17.60
2018-08-24T05:02:04.656Z,17.57
2018-08-24T05:03:04.386Z,17.65
2018-08-24T05:04:04.450Z,17.70
2018-08-24T05:05:04.519Z,17.67
2018-08-24T05:06:04.584Z,17.65
2018-08-24T05:07:04.646Z,17.63
2018-08-24T05:08:04.726Z,17.65
2018-08-24T05:09:05.258Z,17.64
2018-08-24T05:10:04.838Z,17.67
2018-08-24T05:11:04.913Z,17.78
2018-08-24T05:12:04.967Z,17.65
2018-08-24T05:13:05.039Z,17.78
2018-08-24T05:14:05.103Z,17.79
2018-08-24T05:15:05.163Z,17.72
2018-08-24T05:16:05.227Z,17.74
2018-08-24T05:17:05.291Z,17.78
2018-08-24T05:18:05.363Z,17.86
2018-08-24T05:19:05.427Z,17.82
2018-08-24T05:20:05.487Z,17.82
2018-08-24T05:21:05.551Z,17.79
2018-08-24T05:22:05.615Z,17.83
2018-08-24T05:23:05.687Z,17.78
2018-08-24T05:24:05.751Z,17.83
2018-08-24T05:25:05.811Z,17.76
2018-08-24T05:26:05.875Z,17.82
2018-08-24T05:27:05.939Z,17.82
2018-08-24T05:28:06.068Z,17.82
2018-08-24T05:29:06.077Z,17.80
2018-08-24T05:30:06.133Z,17.86
2018-08-24T05:31:06.200Z,17.97
2018-08-24T05:32:06.268Z,17.94
2018-08-24T05:33:06.483Z,17.97
2018-08-24T05:34:06.392Z,17.85
2018-08-24T05:35:06.456Z,17.86
2018-08-24T05:36:06.528Z,17.94
2018-08-24T05:37:06.592Z,17.87
2018-08-24T05:38:06.656Z,17.94
2018-08-24T05:39:06.727Z,17.82
2018-08-24T05:40:06.780Z,17.82
2018-08-24T05:41:06.843Z,17.94
2018-08-24T05:42:06.908Z,17.83
2018-08-24T05:43:06.980Z,17.97
2018-08-24T05:44:07.047Z,17.98
2018-08-24T05:45:07.104Z,17.97
2018-08-24T05:46:07.168Z,17.95
2018-08-24T05:47:07.232Z,17.89
2018-08-24T05:48:07.549Z,17.83
2018-08-24T05:49:07.361Z,17.95
2018-08-24T05:50:07.429Z,17.94
2018-08-24T05:51:07.504Z,17.97
2018-08-24T05:52:07.556Z,17.95
2018-08-24T05:53:07.633Z,18.00
2018-08-24T05:54:07.692Z,17.97
2018-08-24T05:55:07.756Z,17.95
2018-08-24T05:56:07.820Z,17.98
2018-08-24T05:57:07.885Z,18.00
2018-08-24T05:58:07.953Z,18.00
2018-08-24T05:59:08.017Z,18.08
2018-08-24T06:00:08.080Z,18.07
2018-08-24T06:01:08.141Z,18.07
2018-08-24T06:02:08.209Z,18.08
2018-08-24T06:03:08.433Z,18.05
2018-08-24T06:04:08.333Z,18.18
2018-08-24T06:05:08.399Z,18.19
2018-08-24T06:06:08.461Z,18.23
2018-08-24T06:07:08.529Z,18.23
2018-08-24T06:08:08.606Z,18.16
2018-08-24T06:09:08.665Z,18.20
2018-08-24T06:10:08.721Z,18.23
2018-08-24T06:11:08.785Z,18.18
2018-08-24T06:12:08.853Z,18.34
2018-08-24T06:13:08.921Z,18.20
2018-08-24T06:14:08.989Z,18.33
2018-08-24T06:15:09.045Z,18.19
2018-08-24T06:16:09.114Z,18.31
2018-08-24T06:17:09.178Z,18.33
2018-08-24T06:18:09.297Z,18.28
2018-08-24T06:19:09.426Z,18.33
2018-08-24T06:20:09.370Z,18.37
2018-08-24T06:21:09.434Z,18.33
2018-08-24T06:22:09.506Z,18.19
2018-08-24T06:23:09.566Z,18.34
2018-08-24T06:24:09.642Z,18.34
2018-08-24T06:25:09.702Z,18.38
2018-08-24T06:26:09.761Z,18.29
2018-08-24T06:27:09.826Z,18.35
2018-08-24T06:28:09.890Z,18.40
2018-08-24T06:29:09.966Z,18.34
2018-08-24T06:30:10.030Z,18.38
2018-08-24T06:31:10.087Z,18.34
2018-08-24T06:32:10.150Z,18.29
2018-08-24T06:33:10.215Z,18.37
2018-08-24T06:34:10.299Z,18.38
2018-08-24T06:35:10.343Z,18.34
2018-08-24T06:36:10.411Z,18.41
2018-08-24T06:37:10.475Z,18.41
2018-08-24T06:38:10.539Z,18.43
2018-08-24T06:39:10.610Z,18.41
2018-08-24T06:40:10.679Z,18.43
2018-08-24T06:41:10.735Z,18.35
2018-08-24T06:42:10.800Z,18.40
2018-08-24T06:43:10.863Z,18.35
2018-08-24T06:44:10.935Z,18.38
2018-08-24T06:45:10.999Z,18.34
2018-08-24T06:46:11.059Z,18.50
2018-08-24T06:47:11.176Z,18.47
2018-08-24T06:48:11.187Z,18.41
2018-08-24T06:49:11.374Z,18.37
2018-08-24T06:50:11.322Z,18.38
2018-08-24T06:51:11.384Z,18.35
2018-08-24T06:52:11.447Z,18.33
2018-08-24T06:53:11.586Z,18.29
2018-08-24T06:54:11.584Z,18.34
2018-08-24T06:55:11.648Z,18.31
2018-08-24T06:56:11.717Z,18.33
2018-08-24T06:57:11.774Z,18.31
2018-08-24T06:58:11.835Z,18.34
2018-08-24T06:59:11.908Z,18.34
2018-08-24T07:00:11.976Z,18.37
2018-08-24T07:01:12.031Z,18.40
2018-08-24T07:02:12.092Z,18.37
2018-08-24T07:03:12.165Z,18.34
2018-08-24T07:04:12.248Z,18.41
2018-08-24T07:05:12.292Z,18.44
2018-08-24T07:06:12.444Z,18.53
2018-08-24T07:07:12.423Z,18.50
2018-08-24T07:08:12.488Z,18.50
2018-08-24T07:09:12.556Z,18.49
2018-08-24T07:10:12.624Z,18.52
2018-08-24T07:11:12.676Z,18.43
2018-08-24T07:12:12.748Z,18.47
2018-08-24T07:13:12.812Z,18.53
2018-08-24T07:14:12.884Z,18.47
2018-08-24T07:15:12.952Z,18.55
2018-08-24T07:16:13.009Z,18.55
2018-08-24T07:17:13.075Z,18.52
2018-08-24T07:18:13.176Z,18.45
2018-08-24T07:19:13.220Z,18.62
2018-08-24T07:20:13.269Z,18.58
2018-08-24T07:21:13.334Z,18.56
2018-08-24T07:22:13.397Z,18.56
2018-08-24T07:23:13.461Z,18.55
2018-08-24T07:24:13.532Z,18.49
2018-08-24T07:25:13.668Z,18.59
2018-08-24T07:26:13.660Z,18.58
2018-08-24T07:27:13.729Z,18.70
2018-08-24T07:28:13.789Z,18.60
2018-08-24T07:29:13.857Z,18.62
2018-08-24T07:30:13.925Z,18.53
2018-08-24T07:31:13.977Z,18.63
2018-08-24T07:32:14.053Z,18.58
2018-08-24T07:33:14.113Z,18.55
2018-08-24T07:34:14.278Z,18.47
2018-08-24T07:35:14.242Z,18.58
2018-08-24T07:36:14.310Z,18.60
2018-08-24T07:37:14.374Z,18.56
2018-08-24T07:38:14.438Z,18.58
2018-08-24T07:39:14.514Z,18.58
2018-08-24T07:40:14.646Z,18.63
2018-08-24T07:41:14.646Z,18.63
2018-08-24T07:42:14.698Z,18.65
2018-08-24T07:43:14.775Z,18.65
2018-08-24T07:44:14.838Z,18.65
2018-08-24T07:45:14.906Z,18.63
2018-08-24T07:46:14.960Z,18.63
2018-08-24T07:47:15.030Z,18.66
2018-08-24T07:48:15.090Z,18.66
2018-08-24T07:49:15.247Z,18.63
2018-08-24T07:50:15.219Z,18.50
2018-08-24T07:51:15.287Z,18.58
2018-08-24T07:52:15.351Z,18.55
2018-08-24T07:53:16.079Z,18.49
2018-08-24T07:54:15.486Z,18.49
2018-08-24T07:55:15.558Z,18.49
2018-08-24T07:56:15.610Z,18.44
2018-08-24T07:57:15.675Z,18.49
2018-08-24T07:58:15.738Z,18.59
2018-08-24T07:59:15.811Z,18.66
2018-08-24T08:00:15.892Z,18.63
2018-08-24T08:01:15.935Z,18.63
2018-08-24T08:02:16.025Z,18.63
2018-08-24T08:03:16.067Z,18.66
2018-08-24T08:04:16.159Z,18.66
2018-08-24T08:05:16.207Z,18.65
2018-08-24T08:06:16.258Z,18.70
2018-08-24T08:07:16.326Z,18.78
2018-08-24T08:08:16.390Z,18.80
2018-08-24T08:09:16.475Z,18.77
2018-08-24T08:10:16.540Z,18.84
2018-08-24T08:11:16.592Z,18.75
2018-08-24T08:12:16.667Z,18.81
2018-08-24T08:13:16.719Z,18.74
2018-08-24T08:14:16.807Z,18.66
2018-08-24T08:15:16.883Z,18.65
2018-08-24T08:16:16.926Z,18.60
2018-08-24T08:17:16.975Z,18.59
2018-08-24T08:18:17.165Z,18.62
2018-08-24T08:19:17.219Z,18.71
2018-08-24T08:20:17.171Z,18.68
2018-08-24T08:21:17.239Z,18.74
2018-08-24T08:22:17.311Z,18.81
2018-08-24T08:23:17.367Z,18.78
2018-08-24T08:24:17.683Z,18.95
2018-08-24T08:25:17.519Z,18.98
2018-08-24T08:26:17.563Z,18.99
2018-08-24T08:27:17.646Z,18.93
2018-08-24T08:28:17.703Z,18.96
2018-08-24T08:29:17.779Z,18.96
2018-08-24T08:30:17.849Z,18.99
2018-08-24T08:31:17.887Z,18.92
2018-08-24T08:32:17.953Z,18.99
2018-08-24T08:33:18.019Z,18.96
2018-08-24T08:34:18.107Z,19.02
2018-08-24T08:35:18.152Z,19.08
2018-08-24T08:36:18.215Z,19.09
2018-08-24T08:37:18.279Z,19.11
2018-08-24T08:38:18.343Z,19.14
2018-08-24T08:39:18.419Z,19.24
2018-08-24T08:40:18.483Z,19.19
2018-08-24T08:41:18.539Z,19.22
2018-08-24T08:42:18.603Z,19.11
2018-08-24T08:43:18.672Z,19.18
2018-08-24T08:44:18.746Z,19.07
2018-08-24T08:45:18.813Z,19.09
2018-08-24T08:46:18.868Z,19.04
2018-08-24T08:47:18.932Z,19.21
2018-08-24T08:48:18.996Z,19.30
2018-08-24T08:49:19.068Z,19.39
2018-08-24T08:50:19.136Z,19.27
2018-08-24T08:51:19.192Z,19.24
2018-08-24T08:52:19.260Z,19.27
2018-08-24T08:53:19.326Z,19.34
2018-08-24T08:54:19.396Z,19.96
2018-08-24T08:55:19.460Z,20.16
2018-08-24T08:56:19.520Z,20.04
2018-08-24T08:57:19.585Z,19.96
2018-08-24T08:58:19.652Z,19.95
2018-08-24T08:59:19.729Z,19.76
2018-08-24T09:00:19.798Z,19.82
2018-08-24T09:01:19.849Z,19.82
2018-08-24T09:02:19.912Z,19.88
2018-08-24T09:03:19.981Z,20.10
2018-08-24T09:04:20.053Z,20.00
2018-08-24T09:05:20.117Z,20.09
2018-08-24T09:06:20.204Z,20.48
2018-08-24T09:07:20.245Z,20.37
2018-08-24T09:08:20.317Z,20.29
2018-08-24T09:09:20.381Z,20.31
2018-08-24T09:10:20.445Z,20.28
2018-08-24T09:11:20.506Z,20.09
2018-08-24T09:12:20.573Z,20.14
2018-08-24T09:13:20.637Z,20.03
2018-08-24T09:14:20.709Z,20.00
2018-08-24T09:15:20.777Z,20.02
2018-08-24T09:16:20.836Z,20.02
2018-08-24T09:17:20.901Z,20.04
2018-08-24T09:18:21.034Z,19.96
2018-08-24T09:19:21.045Z,20.06
2018-08-24T09:20:21.109Z,20.37
2018-08-24T09:21:21.204Z,21.60
2018-08-24T09:22:21.234Z,22.25
2018-08-24T09:23:21.297Z,22.15
2018-08-24T09:24:21.369Z,22.02
2018-08-24T09:25:21.529Z,22.02
2018-08-24T09:26:21.497Z,22.88
2018-08-24T09:27:21.565Z,23.23
2018-08-24T09:28:21.633Z,23.41
2018-08-24T09:29:21.851Z,23.98
2018-08-24T09:30:21.774Z,24.61
2018-08-24T09:31:21.833Z,24.05
2018-08-24T09:32:21.914Z,23.95
2018-08-24T09:33:21.965Z,23.91
2018-08-24T09:34:22.042Z,23.76
2018-08-24T09:35:22.110Z,23.87
2018-08-24T09:36:22.182Z,23.51
2018-08-24T09:37:22.237Z,23.58
2018-08-24T09:38:22.308Z,24.50
2018-08-24T09:39:22.382Z,23.92
2018-08-24T09:40:22.450Z,23.43
2018-08-24T09:41:22.514Z,23.32
2018-08-24T09:42:22.582Z,23.12
2018-08-24T09:43:22.654Z,22.35
2018-08-24T09:44:22.722Z,21.96
2018-08-24T09:45:22.790Z,21.76
2018-08-24T09:46:22.850Z,21.73
2018-08-24T09:47:22.925Z,21.62
2018-08-24T09:48:22.986Z,21.79
2018-08-24T09:49:23.066Z,22.38
2018-08-24T09:50:23.133Z,22.18
2018-08-24T09:51:23.198Z,22.28
2018-08-24T09:52:23.258Z,22.69
2018-08-24T09:53:23.334Z,22.99
2018-08-24T09:54:23.419Z,23.28
2018-08-24T09:55:23.483Z,22.83
2018-08-24T09:56:23.535Z,22.44
2018-08-24T09:57:23.607Z,22.08
2018-08-24T09:58:23.686Z,21.64
2018-08-24T09:59:23.763Z,21.43
2018-08-24T10:00:23.823Z,21.22
2018-08-24T10:01:23.875Z,21.07
2018-08-24T10:02:23.940Z,20.88
2018-08-24T10:03:24.011Z,20.84
2018-08-24T10:04:24.255Z,21.25
2018-08-24T10:05:24.144Z,22.14
2018-08-24T10:06:24.353Z,22.45
2018-08-24T10:07:24.431Z,23.00
2018-08-24T10:08:24.711Z,23.24
2018-08-24T10:09:24.971Z,23.88
2018-08-24T10:10:25.356Z,23.91
2018-08-24T10:11:25.047Z,23.98
2018-08-24T10:12:24.991Z,24.48
2018-08-24T10:13:25.374Z,24.85
2018-08-24T10:14:25.264Z,24.65
2018-08-24T10:15:24.831Z,25.18
2018-08-24T10:16:25.631Z,25.48
2018-08-24T10:17:24.961Z,25.51
2018-08-24T10:18:25.068Z,25.91
2018-08-24T10:19:25.096Z,26.31
2018-08-24T10:20:25.410Z,25.38
2018-08-24T10:21:25.223Z,24.89
2018-08-24T10:22:25.300Z,24.28
2018-08-24T10:23:25.361Z,24.45
2018-08-24T10:24:25.436Z,24.23
2018-08-24T10:25:26.217Z,23.77
2018-08-24T10:26:26.052Z,23.51
2018-08-24T10:27:25.639Z,23.43
2018-08-24T10:28:25.703Z,23.10
2018-08-24T10:29:25.904Z,23.09
2018-08-24T10:30:25.849Z,22.72
2018-08-24T10:31:25.917Z,22.47
2018-08-24T10:32:25.975Z,22.38
2018-08-24T10:33:26.044Z,22.29
2018-08-24T10:34:26.184Z,22.25
2018-08-24T10:35:26.444Z,22.06
2018-08-24T10:36:26.334Z,22.15
2018-08-24T10:37:26.384Z,21.80
2018-08-24T10:38:26.459Z,22.35
2018-08-24T10:39:26.456Z,22.38
2018-08-24T10:40:26.551Z,22.59
2018-08-24T10:41:26.601Z,22.68
2018-08-24T10:42:26.684Z,23.40
2018-08-24T10:43:26.736Z,23.87
2018-08-24T10:44:26.808Z,23.84
2018-08-24T10:45:26.908Z,23.10
2018-08-24T10:46:26.938Z,23.06
2018-08-24T10:47:27.077Z,22.99
2018-08-24T10:48:27.076Z,22.76
2018-08-24T10:49:27.207Z,23.44
2018-08-24T10:50:27.388Z,23.50
2018-08-24T10:51:27.300Z,23.54
2018-08-24T10:52:27.340Z,24.13
2018-08-24T10:53:27.404Z,23.76
2018-08-24T10:54:27.472Z,23.51
2018-08-24T10:55:27.611Z,23.84
2018-08-24T10:56:27.617Z,24.16
2018-08-24T10:57:27.704Z,24.08
2018-08-24T10:58:27.745Z,24.10
2018-08-24T10:59:27.813Z,24.45
2018-08-24T11:00:27.889Z,24.60
2018-08-24T11:01:27.957Z,24.35
2018-08-24T11:02:28.021Z,24.80
2018-08-24T11:03:28.089Z,24.55
2018-08-24T11:04:28.157Z,24.40
2018-08-24T11:05:28.521Z,24.48
2018-08-24T11:06:28.293Z,24.65
2018-08-24T11:07:28.480Z,24.65
2018-08-24T11:08:28.429Z,24.76
2018-08-24T11:09:28.497Z,24.96
2018-08-24T11:10:28.569Z,25.16
2018-08-24T11:11:28.641Z,25.29
2018-08-24T11:12:28.702Z,25.54
2018-08-24T11:13:28.774Z,25.40
2018-08-24T11:14:28.853Z,25.22
2018-08-24T11:15:28.913Z,25.28
2018-08-24T11:16:28.981Z,24.63
2018-08-24T11:17:29.041Z,24.10
2018-08-24T11:18:29.118Z,24.13
2018-08-24T11:19:29.197Z,23.98
2018-08-24T11:20:29.249Z,24.10
2018-08-24T11:21:29.418Z,24.10
2018-08-24T11:22:29.385Z,24.26
2018-08-24T11:23:29.456Z,24.28
2018-08-24T11:24:29.558Z,24.29
2018-08-24T11:25:29.922Z,24.32
2018-08-24T11:26:29.669Z,24.21
2018-08-24T11:27:29.734Z,24.13
2018-08-24T11:28:29.799Z,24.36
2018-08-24T11:29:29.871Z,24.54
2018-08-24T11:30:29.938Z,24.76
2018-08-24T11:31:30.010Z,24.89
2018-08-24T11:32:30.078Z,25.07
2018-08-24T11:33:30.138Z,25.13
2018-08-24T11:34:30.207Z,25.01
2018-08-24T11:35:30.274Z,24.81
2018-08-24T11:36:30.354Z,24.54
2018-08-24T11:37:30.419Z,24.66
2018-08-24T11:38:30.496Z,24.78
2018-08-24T11:39:30.554Z,24.74
2018-08-24T11:40:30.618Z,24.70
2018-08-24T11:41:30.701Z,24.33
2018-08-24T11:42:30.763Z,24.10
2018-08-24T11:43:30.823Z,24.05
2018-08-24T11:44:30.895Z,24.20
2018-08-24T11:45:30.959Z,24.40
2018-08-24T11:46:31.035Z,24.24
2018-08-24T11:47:31.102Z,24.50
2018-08-24T11:48:31.167Z,24.77
2018-08-24T11:49:31.235Z,24.84
2018-08-24T11:50:31.303Z,24.84
2018-08-24T11:51:31.383Z,24.33
2018-08-24T11:52:31.447Z,24.65
2018-08-24T11:53:31.523Z,24.74
2018-08-24T11:54:31.646Z,24.89
2018-08-24T11:55:33.063Z,24.99
2018-08-24T11:56:31.719Z,24.96
2018-08-24T11:57:31.787Z,24.99
2018-08-24T11:58:31.856Z,25.08
2018-08-24T11:59:31.919Z,24.84
2018-08-24T12:00:31.991Z,24.91
2018-08-24T12:01:32.064Z,24.98
2018-08-24T12:02:32.132Z,24.96
2018-08-24T12:03:32.196Z,25.14
2018-08-24T12:04:32.263Z,25.07
2018-08-24T12:05:32.333Z,24.98
2018-08-24T12:06:32.412Z,24.78
2018-08-24T12:07:32.476Z,25.01
2018-08-24T12:08:32.548Z,24.58
2018-08-24T12:09:32.604Z,24.70
2018-08-24T12:10:32.682Z,24.91
2018-08-24T12:11:32.752Z,24.89
2018-08-24T12:12:32.869Z,25.17
2018-08-24T12:13:32.880Z,25.48
2018-08-24T12:14:32.952Z,25.38
2018-08-24T12:15:33.020Z,25.43
2018-08-24T12:16:33.332Z,25.54
2018-08-24T12:17:33.164Z,25.48
2018-08-24T12:18:33.224Z,25.62
2018-08-24T12:19:33.296Z,25.58
2018-08-24T12:20:33.365Z,25.63
2018-08-24T12:21:33.502Z,25.66
2018-08-24T12:22:33.509Z,25.70
2018-08-24T12:23:33.620Z,25.78
2018-08-24T12:24:33.717Z,26.00
2018-08-24T12:25:33.709Z,26.15
2018-08-24T12:26:33.984Z,25.81
2018-08-24T12:27:33.855Z,25.47
2018-08-24T12:28:33.913Z,25.29
2018-08-24T12:29:33.990Z,25.35
2018-08-24T12:30:34.057Z,25.35
2018-08-24T12:31:34.215Z,25.25
2018-08-24T12:32:34.197Z,25.36
2018-08-24T12:33:34.267Z,25.50
2018-08-24T12:34:34.330Z,25.59
2018-08-24T12:35:34.401Z,25.31
2018-08-24T12:36:34.473Z,25.17
2018-08-24T12:37:34.541Z,25.25
2018-08-24T12:38:34.605Z,25.58
2018-08-24T12:39:34.673Z,25.66
2018-08-24T12:40:34.745Z,25.81
2018-08-24T12:41:34.820Z,26.16
2018-08-24T12:42:34.889Z,26.34
2018-08-24T12:43:35.010Z,26.23
2018-08-24T12:44:35.021Z,26.06
2018-08-24T12:45:35.094Z,25.63
2018-08-24T12:46:35.397Z,25.46
2018-08-24T12:47:35.233Z,25.04
2018-08-24T12:48:35.298Z,24.68
2018-08-24T12:49:35.370Z,24.55
2018-08-24T12:50:35.434Z,24.61
2018-08-24T12:51:35.517Z,24.76
2018-08-24T12:52:35.582Z,24.51
2018-08-24T12:53:35.642Z,24.50